Time;durP1;ratioP1;P1;durP2;ratioP2;P2;SDS_P1;SDS_P2;PMS_P1;PMS_P2;Temp;Humidity;BMP_temperature;BMP_pressure;BME280_temperature;BME280_humidity;BME280_pressure;Samples;Min_cycle;Max_cycle;Signal;HPM_P1;HPM_P2
2022/09/24 00:01:34;;;;;;;14.10;12.70;;;;;;;14.28;100.00;101223.34;5283563;28;20060;-74
2022/09/24 00:04:07;;;;;;;14.27;12.88;;;;;;;14.28;100.00;101226.84;5267569;28;20400;-74
2022/09/24 00:06:43;;;;;;;14.35;12.90;;;;;;;14.27;100.00;101230.41;5286001;28;20382;-74
2022/09/24 00:09:18;;;;;;;14.50;13.10;;;;;;;14.25;100.00;101224.47;5290138;28;20416;-74
2022/09/24 00:11:52;;;;;;;14.80;13.25;;;;;;;14.25;100.00;101221.84;5286619;28;20116;-74
2022/09/24 00:14:23;;;;;;;14.07;12.57;;;;;;;14.24;100.00;101214.88;5283279;28;20013;-74
2022/09/24 00:16:55;;;;;;;14.38;12.90;;;;;;;14.22;100.00;101214.22;5287501;28;20370;-74
2022/09/24 00:19:26;;;;;;;14.70;13.05;;;;;;;14.23;100.00;101212.41;5261546;28;20020;-74
2022/09/24 00:21:57;;;;;;;14.20;12.57;;;;;;;14.16;100.00;101213.97;5283425;28;20500;-74
2022/09/24 00:27:19;;;;;;;13.65;12.07;;;;;;;14.18;100.00;101199.69;5281061;28;20044;-74
2022/09/24 00:29:50;;;;;;;13.93;12.48;;;;;;;14.25;100.00;101199.94;5281736;28;20024;-74
2022/09/24 00:32:23;;;;;;;13.90;12.40;;;;;;;14.17;100.00;101194.53;5280487;28;20564;-74
2022/09/24 00:34:54;;;;;;;13.70;12.30;;;;;;;14.22;100.00;101192.31;5288321;28;20024;-74
2022/09/24 00:37:27;;;;;;;14.00;12.60;;;;;;;14.22;100.00;101194.94;5280581;28;20028;-74
2022/09/24 00:39:58;;;;;;;14.77;13.10;;;;;;;14.23;100.00;101192.16;5282269;28;20036;-74
2022/09/24 00:42:31;;;;;;;14.43;12.88;;;;;;;14.19;100.00;101182.06;5285317;28;20028;-74
2022/09/24 00:45:03;;;;;;;13.88;12.52;;;;;;;14.24;100.00;101193.81;5286090;28;20056;-75
2022/09/24 00:47:37;;;;;;;13.50;12.20;;;;;;;14.23;100.00;101186.88;5287589;28;20031;-74
2022/09/24 00:50:30;;;;;;;15.20;13.00;;;;;;;14.44;100.00;101191.09;5288238;28;20028;-74
2022/09/24 00:53:12;;;;;;;13.90;12.52;;;;;;;14.35;100.00;101187.53;5286676;28;20036;-74
2022/09/24 00:55:49;;;;;;;13.32;11.45;;;;;;;14.23;100.00;101183.44;5285906;28;20034;-74
2022/09/24 00:58:21;;;;;;;13.18;11.65;;;;;;;14.17;100.00;101176.09;5282394;28;20510;-74
2022/09/24 01:00:58;;;;;;;12.85;11.50;;;;;;;14.22;100.00;101172.06;5285686;28;20051;-74
2022/09/24 01:03:31;;;;;;;13.02;11.73;;;;;;;14.16;100.00;101172.63;5284539;28;20044;-74
2022/09/24 01:06:02;;;;;;;;;;;;;;;14.77;100.00;101171.22;5262620;28;20028;-74
2022/09/24 01:08:33;;;;;;;12.18;10.68;;;;;;;14.23;100.00;101176.34;5280072;28;20218;-74
2022/09/24 01:11:36;;;;;;;12.82;11.40;;;;;;;14.37;100.00;101175.03;5284302;28;20028;-74
2022/09/24 01:14:32;;;;;;;12.35;11.07;;;;;;;14.42;100.00;101161.41;5281121;28;20016;-74
2022/09/24 01:17:13;;;;;;;12.43;11.13;;;;;;;14.17;100.00;101157.63;5285870;28;20485;-74
2022/09/24 01:19:56;;;;;;;13.10;11.15;;;;;;;14.35;100.00;101158.53;5281680;28;20028;-74
2022/09/24 01:23:03;;;;;;;12.95;11.65;;;;;;;14.30;100.00;101153.69;5265299;28;20127;-74
2022/09/24 01:25:58;;;;;;;13.65;11.95;;;;;;;14.16;100.00;101148.91;5284830;28;20028;-74
2022/09/24 01:28:55;;;;;;;13.32;12.02;;;;;;;14.31;100.00;101154.53;5279992;28;20665;-74
2022/09/24 01:31:37;;;;;;;13.48;12.13;;;;;;;14.21;100.00;101148.50;5277402;28;20024;-74
2022/09/24 01:34:14;;;;;;;14.77;12.23;;;;;;;14.06;100.00;101135.81;5278299;28;20035;-74
2022/09/24 01:36:47;;;;;;;14.82;12.50;;;;;;;14.05;100.00;101133.28;5283634;28;20032;-74
2022/09/24 01:39:19;;;;;;;13.48;11.73;;;;;;;14.09;100.00;101132.88;5285069;28;20020;-74
2022/09/24 01:41:52;;;;;;;13.70;12.30;;;;;;;14.08;100.00;101131.19;5281260;28;20556;-74
2022/09/24 01:44:24;;;;;;;13.70;11.85;;;;;;;14.07;100.00;101132.19;5281841;28;20024;-74
2022/09/24 01:46:55;;;;;;;13.02;11.75;;;;;;;14.07;100.00;101126.91;5282767;28;20625;-74
2022/09/24 01:49:27;;;;;;;12.48;11.10;;;;;;;14.09;100.00;101129.38;5281056;28;20542;-74
2022/09/24 01:52:02;;;;;;;14.07;12.60;;;;;;;14.10;100.00;101121.34;5281180;28;20028;-74
2022/09/24 01:54:38;;;;;;;13.00;11.70;;;;;;;14.12;100.00;101129.09;5283157;28;20416;-74
2022/09/24 01:57:17;;;;;;;13.82;12.35;;;;;;;14.11;100.00;101136.19;5285965;28;20025;-74
2022/09/24 02:00:01;;;;;;;13.38;12.07;;;;;;;14.17;100.00;101118.97;5280193;28;20294;-74
2022/09/24 02:02:39;;;;;;;13.93;12.45;;;;;;;14.11;100.00;101124.81;5274927;28;20025;-74
2022/09/24 02:05:23;;;;;;;13.70;12.25;;;;;;;14.16;100.00;101117.28;5280521;28;20043;-74
2022/09/24 02:08:13;;;;;;;13.52;11.98;;;;;;;14.20;100.00;101123.09;5281639;28;20028;-74
2022/09/24 02:11:00;;;;;;;13.98;12.68;;;;;;;14.18;100.00;101118.00;5279199;28;20219;-74
2022/09/24 02:13:42;;;;;;;13.50;12.10;;;;;;;14.08;100.00;101114.56;5287263;28;20032;-74
2022/09/24 02:16:15;;;;;;;14.27;12.80;;;;;;;14.00;100.00;101117.09;5280060;28;20032;-74
2022/09/24 02:18:49;;;;;;;13.38;12.07;;;;;;;13.98;100.00;101112.00;5279573;28;20071;-74
2022/09/24 02:21:22;;;;;;;14.00;12.55;;;;;;;13.99;100.00;101118.91;5284744;28;20377;-74
2022/09/24 02:24:00;;;;;;;14.35;12.85;;;;;;;14.03;100.00;101114.19;5283169;28;20026;-74
2022/09/24 02:26:32;;;;;;;14.27;12.77;;;;;;;13.99;100.00;101112.81;5290646;28;20245;-74
2022/09/24 02:29:04;;;;;;;14.23;12.82;;;;;;;14.00;100.00;101115.28;5290127;28;20025;-74
2022/09/24 02:31:39;;;;;;;13.95;12.65;;;;;;;14.08;100.00;101110.13;5284682;28;20754;-74
2022/09/24 02:34:22;;;;;;;14.45;12.98;;;;;;;14.07;100.00;101105.00;5284127;28;20031;-74
2022/09/24 02:37:05;;;;;;;14.50;12.93;;;;;;;14.17;100.00;101104.94;5287992;28;20110;-74
2022/09/24 02:39:37;;;;;;;14.70;13.20;;;;;;;14.03;100.00;101109.75;5291738;28;20078;-74
2022/09/24 02:42:11;;;;;;;15.80;14.10;;;;;;;14.02;100.00;101109.91;5284480;28;20024;-74
2022/09/24 02:44:42;;;;;;;16.48;14.65;;;;;;;13.99;100.00;101105.75;5283910;28;20643;-74
2022/09/24 02:47:13;;;;;;;15.80;14.25;;;;;;;14.02;100.00;101100.19;5284321;28;20040;-74
2022/09/24 02:49:44;;;;;;;16.45;14.32;;;;;;;14.00;100.00;101101.28;5288474;28;20036;-74
2022/09/24 02:52:17;;;;;;;17.23;15.43;;;;;;;14.02;100.00;101104.63;5284394;28;20032;-74
2022/09/24 02:54:49;;;;;;;16.55;14.38;;;;;;;14.01;100.00;101095.88;5285504;28;20016;-74
2022/09/24 02:57:20;;;;;;;16.77;15.00;;;;;;;13.99;100.00;101094.38;5285862;28;20341;-74
2022/09/24 02:59:52;;;;;;;16.42;14.80;;;;;;;13.99;100.00;101092.56;5291737;28;20077;-74
2022/09/24 03:02:23;;;;;;;17.17;14.65;;;;;;;14.03;100.00;101098.38;5274599;28;20024;-74
2022/09/24 03:04:54;;;;;;;18.88;16.88;;;;;;;13.99;100.00;101092.56;5284689;28;20075;-74
2022/09/24 03:07:25;;;;;;;18.17;16.13;;;;;;;14.00;100.00;101096.84;5288711;28;20032;-74
2022/09/24 03:09:58;;;;;;;18.85;16.48;;;;;;;13.91;100.00;101081.94;5288447;28;20024;-74
2022/09/24 03:12:29;;;;;;;20.25;17.58;;;;;;;13.96;100.00;101081.50;5288115;28;20047;-74
2022/09/24 03:15:00;;;;;;;20.33;17.60;;;;;;;13.95;100.00;101085.94;5288350;28;20453;-74
2022/09/24 03:17:32;;;;;;;20.85;18.58;;;;;;;13.97;100.00;101083.16;5280648;28;20033;-74
2022/09/24 03:20:03;;;;;;;23.25;20.77;;;;;;;13.96;100.00;101082.31;5287373;28;20024;-74
2022/09/24 03:22:35;;;;;;;21.13;18.92;;;;;;;14.00;100.00;101078.41;5269735;28;20029;-75
2022/09/24 03:25:06;;;;;;;22.45;20.05;;;;;;;14.02;100.00;101079.13;5265385;28;20031;-74
2022/09/24 03:27:38;;;;;;;22.75;20.45;;;;;;;14.03;100.00;101078.13;5292062;28;20397;-74
2022/09/24 03:32:59;;;;;;;23.33;20.48;;;;;;;14.04;100.00;101076.31;5283319;28;20556;-74
2022/09/24 03:35:31;;;;;;;24.33;21.83;;;;;;;14.05;100.00;101076.19;5285641;28;20921;-74
2022/09/24 03:38:02;;;;;;;24.33;21.80;;;;;;;14.09;100.00;101074.06;5282823;28;20032;-74
2022/09/24 03:40:33;;;;;;;23.08;20.67;;;;;;;14.10;100.00;101078.38;5285480;28;20039;-74
2022/09/24 03:43:05;;;;;;;24.83;22.27;;;;;;;14.10;100.00;101073.94;5280314;28;20028;-74
2022/09/24 03:45:37;;;;;;;24.02;21.33;;;;;;;14.10;100.00;101067.84;5288622;28;20085;-74
2022/09/24 03:48:08;;;;;;;24.67;22.08;;;;;;;14.11;100.00;101070.31;5288304;28;20034;-74
2022/09/24 03:50:40;;;;;;;25.27;22.27;;;;;;;14.10;100.00;101073.09;5286396;28;20028;-74
2022/09/24 03:53:12;;;;;;;25.02;22.42;;;;;;;14.06;100.00;101069.09;5281747;28;20032;-74
2022/09/24 03:55:51;;;;;;;25.80;23.20;;;;;;;14.03;100.00;101058.88;5286842;28;20020;-74
2022/09/24 03:58:23;;;;;;;25.17;22.55;;;;;;;14.04;100.00;101058.69;5286734;28;20291;-74
2022/09/24 04:00:54;;;;;;;23.77;21.20;;;;;;;14.05;100.00;101054.25;5276379;28;20035;-73
2022/09/24 04:03:26;;;;;;;24.77;22.08;;;;;;;14.01;100.00;101055.53;5281117;28;20037;-74
2022/09/24 04:05:57;;;;;;;24.48;21.95;;;;;;;14.02;100.00;101051.94;5284862;28;20078;-73
2022/09/24 04:08:29;;;;;;;24.77;22.13;;;;;;;14.01;100.00;101052.91;5284857;28;20032;-74
2022/09/24 04:11:00;;;;;;;23.65;21.17;;;;;;;14.09;100.00;101055.63;5282790;28;20508;-74
2022/09/24 04:13:31;;;;;;;24.40;21.17;;;;;;;14.10;100.00;101046.75;5280896;28;20061;-74
2022/09/24 04:16:03;;;;;;;22.35;19.70;;;;;;;14.12;100.00;101042.16;5286681;28;20016;-74
2022/09/24 04:18:34;;;;;;;24.83;22.00;;;;;;;14.08;100.00;101041.63;5290556;28;20028;-74
2022/09/24 04:21:09;;;;;;;21.92;19.55;;;;;;;14.04;100.00;101039.44;5281261;28;20024;-74
2022/09/24 04:23:40;;;;;;;23.90;20.55;;;;;;;14.06;100.00;101042.78;5285784;28;20488;-74
2022/09/24 04:26:11;;;;;;;22.17;19.77;;;;;;;14.06;100.00;101040.97;5285333;28;20052;-74
2022/09/24 04:28:43;;;;;;;23.05;20.65;;;;;;;14.07;100.00;101036.50;5286596;28;20063;-73
2022/09/24 04:31:14;;;;;;;22.00;19.70;;;;;;;14.05;100.00;101043.72;5280075;28;20062;-74
2022/09/24 04:33:45;;;;;;;22.58;20.00;;;;;;;14.05;100.00;101038.44;5289506;28;20508;-74
2022/09/24 04:36:16;;;;;;;23.17;19.90;;;;;;;14.06;100.00;101042.78;5284707;28;20091;-74
2022/09/24 04:38:49;;;;;;;21.65;19.35;;;;;;;14.00;100.00;101025.72;5286516;28;20042;-74
2022/09/24 04:41:20;;;;;;;21.33;19.02;;;;;;;14.12;100.00;101039.53;5278863;28;20039;-74
2022/09/24 04:43:51;;;;;;;21.75;19.08;;;;;;;14.11;100.00;101041.34;5262488;28;20032;-74
2022/09/24 04:46:23;;;;;;;21.70;19.40;;;;;;;14.10;100.00;101044.13;5282991;28;20559;-74
2022/09/24 04:48:54;;;;;;;20.42;18.15;;;;;;;14.03;100.00;101040.41;5283193;28;20123;-74
2022/09/24 04:51:25;;;;;;;20.95;18.85;;;;;;;14.02;100.00;101038.78;5288420;28;20019;-74
2022/09/24 04:53:57;;;;;;;21.95;19.40;;;;;;;14.03;100.00;101037.78;5287330;28;20043;-74
2022/09/24 04:56:28;;;;;;;21.45;19.25;;;;;;;14.02;100.00;101038.78;5284988;28;20039;-74
2022/09/24 04:58:59;;;;;;;22.20;19.88;;;;;;;14.01;100.00;101045.00;5286277;28;20041;-74
2022/09/24 05:01:31;;;;;;;20.48;18.38;;;;;;;14.03;100.00;101035.16;5283775;28;20025;-74
2022/09/24 05:04:02;;;;;;;21.70;18.52;;;;;;;14.02;100.00;101026.44;5286235;28;20469;-74
2022/09/24 05:06:35;;;;;;;20.35;18.35;;;;;;;14.01;100.00;101027.38;5261503;28;20507;-74
2022/09/24 05:09:07;;;;;;;19.67;17.73;;;;;;;14.03;100.00;101035.97;5288340;28;20035;-74
2022/09/24 05:11:38;;;;;;;19.38;17.38;;;;;;;14.05;100.00;101036.66;5285711;28;20463;-74
2022/09/24 05:14:10;;;;;;;19.88;17.77;;;;;;;14.06;100.00;101042.78;5287401;28;20031;-74
2022/09/24 05:16:41;;;;;;;19.55;17.55;;;;;;;14.03;100.00;101046.50;5281217;28;20508;-74
2022/09/24 05:19:12;;;;;;;18.65;16.05;;;;;;;14.03;100.00;101046.50;5281103;28;20058;-74
2022/09/24 05:21:43;;;;;;;18.20;16.35;;;;;;;14.04;100.00;101036.81;5260695;28;20055;-74
2022/09/24 05:24:15;;;;;;;18.48;16.58;;;;;;;14.11;100.00;101037.88;5283053;28;20056;-74
2022/09/24 05:29:42;;;;;;;17.35;14.93;;;;;;;14.08;100.00;101046.06;5283928;28;20049;-74
2022/09/24 05:32:18;;;;;;;17.20;15.38;;;;;;;14.01;100.00;101045.00;5282793;28;20530;-73
2022/09/24 05:34:49;;;;;;;16.35;14.75;;;;;;;14.09;100.00;101048.56;5282851;28;20031;-74
2022/09/24 05:37:21;;;;;;;16.48;14.82;;;;;;;14.01;100.00;101047.63;5283546;28;20032;-74
2022/09/24 05:39:53;;;;;;;16.40;14.80;;;;;;;14.05;100.00;101049.00;5282059;28;20032;-74
2022/09/24 05:42:24;;;;;;;16.13;14.52;;;;;;;13.97;100.00;101036.56;5282256;28;20039;-74
2022/09/24 05:44:56;;;;;;;16.20;14.40;;;;;;;13.98;100.00;101048.78;5285942;28;20032;-74
2022/09/24 05:47:27;;;;;;;16.30;14.80;;;;;;;13.96;100.00;101052.53;5277277;28;20048;-74
2022/09/24 05:49:58;;;;;;;15.30;13.80;;;;;;;13.96;100.00;101055.16;5280863;28;20032;-74
2022/09/24 05:52:29;;;;;;;15.40;13.50;;;;;;;14.00;100.00;101059.97;5282299;28;20493;-74
2022/09/24 05:55:01;;;;;;;15.45;13.88;;;;;;;13.97;100.00;101062.91;5287381;28;20414;-75
2022/09/24 05:57:33;;;;;;;15.85;14.15;;;;;;;13.98;100.00;101056.69;5295686;28;20397;-75
2022/09/24 06:00:05;;;;;;;16.90;15.10;;;;;;;13.96;100.00;101055.97;5287586;28;20393;-74
2022/09/24 06:02:36;;;;;;;16.40;14.55;;;;;;;13.99;100.00;101054.88;5279226;28;20025;-74
2022/09/24 06:05:08;;;;;;;15.45;13.82;;;;;;;14.01;100.00;101060.81;5286301;28;20396;-74
2022/09/24 06:07:40;;;;;;;15.90;14.30;;;;;;;13.95;100.00;101062.22;5286806;28;20577;-74
2022/09/24 06:10:11;;;;;;;16.23;14.52;;;;;;;13.98;100.00;101059.31;5291527;28;20032;-74
2022/09/24 06:12:44;;;;;;;15.10;13.60;;;;;;;14.01;100.00;101066.06;5281163;28;20024;-75
2022/09/24 06:15:15;;;;;;;16.17;14.57;;;;;;;14.02;100.00;101071.22;5287726;28;20056;-75
2022/09/24 06:17:46;;;;;;;15.77;14.10;;;;;;;14.03;100.00;101062.31;5288612;28;20079;-75
2022/09/24 06:20:18;;;;;;;15.38;13.90;;;;;;;14.04;100.00;101065.78;5289140;28;20396;-74
2022/09/24 06:22:49;;;;;;;16.50;14.80;;;;;;;14.03;100.00;101066.75;5287680;28;20506;-74
2022/09/24 06:25:20;;;;;;;15.30;13.70;;;;;;;14.04;100.00;101068.41;5289699;28;20492;-74
2022/09/24 06:27:59;;;;;;;15.77;13.85;;;;;;;14.02;100.00;101071.22;5285730;28;20100;-75
2022/09/24 06:30:37;;;;;;;17.05;15.25;;;;;;;14.12;100.00;101077.22;5286302;28;20103;-74
2022/09/24 06:33:11;;;;;;;15.27;13.88;;;;;;;14.04;100.00;101073.69;5284203;28;20032;-74
2022/09/24 06:35:43;;;;;;;15.50;13.90;;;;;;;14.00;100.00;101080.22;5285733;28;20028;-75
2022/09/24 06:38:16;;;;;;;15.18;13.68;;;;;;;14.00;100.00;101075.78;5268768;28;20045;-74
2022/09/24 06:40:47;;;;;;;15.02;13.57;;;;;;;13.95;100.00;101066.69;5286621;28;20032;-74
2022/09/24 06:43:19;;;;;;;15.93;14.32;;;;;;;14.03;100.00;101080.75;5284772;28;20024;-74
2022/09/24 06:45:54;;;;;;;15.82;14.23;;;;;;;14.07;100.00;101078.66;5283052;28;20040;-74
2022/09/24 06:48:26;;;;;;;15.65;14.05;;;;;;;14.04;100.00;101081.59;5286747;28;20024;-74
2022/09/24 06:50:58;;;;;;;14.82;13.32;;;;;;;14.05;100.00;101080.59;5291356;28;20135;-74
2022/09/24 06:53:30;;;;;;;15.75;14.07;;;;;;;14.05;100.00;101081.47;5289724;28;20032;-74
2022/09/24 06:56:02;;;;;;;15.07;13.48;;;;;;;14.04;100.00;101090.31;5281575;28;20028;-74
2022/09/24 06:58:33;;;;;;;15.55;13.93;;;;;;;14.03;100.00;101085.22;5282061;28;20097;-73
2022/09/24 07:01:05;;;;;;;15.45;13.73;;;;;;;14.03;100.00;101087.84;5285035;28;20056;-74
2022/09/24 07:03:38;;;;;;;14.32;12.93;;;;;;;14.01;100.00;101085.34;5283761;28;20032;-73
2022/09/24 07:06:09;;;;;;;16.52;13.82;;;;;;;14.05;100.00;101093.78;5286877;28;20028;-73
2022/09/24 07:08:40;;;;;;;19.67;14.38;;;;;;;14.04;100.00;101092.13;5287974;28;20443;-73
2022/09/24 07:11:12;;;;;;;18.85;14.10;;;;;;;14.08;100.00;101085.59;5279235;28;20472;-74
2022/09/24 07:13:43;;;;;;;14.85;13.45;;;;;;;14.11;100.00;101095.84;5283571;28;20020;-74
2022/09/24 07:16:14;;;;;;;16.42;14.68;;;;;;;14.10;100.00;101100.28;5285113;28;20494;-74
2022/09/24 07:18:46;;;;;;;17.63;15.82;;;;;;;14.09;100.00;101090.72;5278617;28;20640;-74
2022/09/24 07:21:17;;;;;;;16.63;14.93;;;;;;;14.13;100.00;101096.53;5284569;28;20381;-74
2022/09/24 07:23:49;;;;;;;15.25;13.45;;;;;;;14.11;100.00;101095.84;5291216;28;20390;-73
2022/09/24 07:26:20;;;;;;;15.80;13.93;;;;;;;14.12;100.00;101097.47;5255892;28;20037;-75
2022/09/24 07:28:51;;;;;;;16.08;14.43;;;;;;;14.14;100.00;101095.53;5282895;28;20028;-74
2022/09/24 07:31:25;;;;;;;15.93;14.32;;;;;;;14.12;100.00;101097.47;5275693;28;20091;-74
2022/09/24 07:33:57;;;;;;;15.95;13.70;;;;;;;14.15;100.00;101101.63;5279705;28;20039;-74
2022/09/24 07:36:30;;;;;;;16.58;14.70;;;;;;;14.15;100.00;101102.47;5280029;28;20764;-74
2022/09/24 07:39:01;;;;;;;;;;;;;;;14.70;100.00;101098.94;5282007;28;20038;-74
2022/09/24 07:41:33;;;;;;;16.80;14.55;;;;;;;14.19;100.00;101105.63;5282489;28;19923;-74
2022/09/24 07:44:04;;;;;;;18.17;15.27;;;;;;;14.15;100.00;101107.75;5280447;28;20081;-74
2022/09/24 07:46:36;;;;;;;17.73;15.98;;;;;;;14.15;100.00;101115.63;5284929;28;20032;-74
2022/09/24 07:49:07;;;;;;;17.58;15.77;;;;;;;14.17;100.00;101121.59;5287354;28;20074;-73
2022/09/24 07:51:38;;;;;;;17.80;15.90;;;;;;;14.16;100.00;101114.66;5281202;28;20024;-73
2022/09/24 07:54:10;;;;;;;18.30;16.40;;;;;;;14.22;100.00;101124.63;5275910;28;20016;-74
2022/09/24 07:56:41;;;;;;;18.00;16.13;;;;;;;14.19;100.00;101114.38;5277295;28;20047;-73
2022/09/24 07:59:13;;;;;;;19.15;17.00;;;;;;;14.27;100.00;101122.38;5275639;28;20561;-74
2022/09/24 08:01:44;;;;;;;17.63;15.85;;;;;;;14.29;100.00;101125.69;5282751;28;20094;-73
2022/09/24 08:04:17;;;;;;;18.95;16.70;;;;;;;14.27;100.00;101118.91;5285470;28;20470;-74
2022/09/24 08:06:48;;;;;;;18.40;16.60;;;;;;;14.30;100.00;101121.25;5284621;28;20361;-74
2022/09/24 08:09:19;;;;;;;18.73;16.83;;;;;;;14.32;100.00;101122.78;5284184;28;20031;-73
2022/09/24 08:11:51;;;;;;;19.67;17.55;;;;;;;14.34;100.00;101123.44;5272686;28;20028;-74
2022/09/24 08:14:22;;;;;;;20.33;17.05;;;;;;;14.33;100.00;101118.31;5279877;28;20719;-74
2022/09/24 08:16:54;;;;;;;19.38;17.38;;;;;;;14.34;100.00;101128.72;5285876;28;20028;-74
2022/09/24 08:19:27;;;;;;;18.40;16.55;;;;;;;14.41;100.00;101128.13;5281085;28;20032;-74
2022/09/24 08:21:58;;;;;;;18.73;16.80;;;;;;;14.41;100.00;101133.41;5282098;28;20390;-74
2022/09/24 08:24:30;;;;;;;19.13;17.27;;;;;;;14.41;100.00;101143.94;5282574;28;20032;-74
2022/09/24 08:27:01;;;;;;;18.60;16.70;;;;;;;14.36;100.00;101124.13;5277053;28;20098;-74
2022/09/24 08:29:33;;;;;;;18.45;16.63;;;;;;;14.44;100.00;101141.03;5276765;28;20295;-74
2022/09/24 08:32:04;;;;;;;18.83;16.70;;;;;;;14.49;100.00;101139.63;5274765;28;20023;-74
2022/09/24 08:34:39;;;;;;;18.83;16.92;;;;;;;14.50;100.00;101143.06;5275806;28;20032;-74
2022/09/24 08:37:11;;;;;;;19.20;16.83;;;;;;;14.50;100.00;101146.53;5273739;28;20038;-74
2022/09/24 08:39:42;;;;;;;18.70;16.83;;;;;;;14.41;100.00;101123.69;5278216;28;20036;-74
2022/09/24 08:42:40;;;;;;;18.35;16.55;;;;;;;14.70;100.00;101149.91;5283064;28;20028;-75
2022/09/24 08:48:14;;;;;;;18.15;16.25;;;;;;;14.72;100.00;101150.56;5297005;22;20040;-72
2022/09/24 08:50:52;;;;;;;17.70;15.95;;;;;;;14.54;100.00;101147.91;5295832;28;20036;-72
2022/09/24 08:53:54;;;;;;;17.00;15.23;;;;;;;14.75;100.00;101157.34;5304390;28;20110;-72
2022/09/24 08:56:33;;;;;;;17.80;15.90;;;;;;;14.64;100.00;101161.03;5295949;28;20024;-72
2022/09/24 08:59:11;;;;;;;17.60;15.63;;;;;;;14.66;100.00;101164.38;5287458;28;20124;-72
2022/09/24 09:01:51;;;;;;;17.73;15.90;;;;;;;14.66;100.00;101153.81;5288489;28;20544;-72
2022/09/24 09:04:32;;;;;;;18.17;16.38;;;;;;;14.71;100.00;101158.63;5287179;28;20059;-72
2022/09/24 09:07:09;;;;;;;16.80;15.00;;;;;;;14.69;100.00;101165.84;5288485;28;20031;-72
2022/09/24 09:09:48;;;;;;;18.95;16.77;;;;;;;14.71;100.00;101161.28;5294239;28;20610;-72
2022/09/24 09:12:45;;;;;;;17.77;15.93;;;;;;;14.88;100.00;101154.34;5292470;28;20400;-72
2022/09/24 09:15:24;;;;;;;18.92;17.00;;;;;;;14.76;100.00;101167.75;5287996;28;20458;-72
2022/09/24 09:18:18;;;;;;;19.08;17.05;;;;;;;14.95;100.00;101171.22;5295235;28;20073;-72
2022/09/24 09:20:49;;;;;;;20.58;18.38;;;;;;;14.71;100.00;101166.56;5290915;28;20443;-72
2022/09/24 09:23:31;;;;;;;19.92;17.90;;;;;;;14.79;100.00;101164.00;5293516;28;20028;-73
2022/09/24 09:26:05;;;;;;;20.42;18.40;;;;;;;14.75;100.00;101166.09;5291194;28;20081;-73
2022/09/24 09:28:37;;;;;;;19.35;17.02;;;;;;;14.74;100.00;101164.44;5293831;28;20024;-72
2022/09/24 09:32:02;;;;;;;20.48;18.42;;;;;;;14.98;100.00;101173.56;5289671;28;20074;-72
2022/09/24 09:34:45;;;;;;;20.77;17.23;;;;;;;14.93;100.00;101175.84;5191787;28;20038;-72
2022/09/24 09:37:39;;;;;;;19.27;17.23;;;;;;;15.08;100.00;101169.88;5195738;28;20660;-73
2022/09/24 09:40:26;;;;;;;19.55;17.42;;;;;;;15.07;100.00;101168.19;5272259;28;20465;-72
2022/09/24 09:43:12;;;;;;;20.88;18.67;;;;;;;15.06;100.00;101169.19;5293406;28;20089;-72
2022/09/24 09:46:06;;;;;;;17.90;16.08;;;;;;;15.07;100.00;101164.72;5290331;28;20052;-72
2022/09/24 09:48:44;;;;;;;20.17;18.08;;;;;;;15.01;100.00;101162.72;5275047;28;20217;-72
2022/09/24 09:51:18;;;;;;;20.73;17.88;;;;;;;14.91;100.00;101167.22;5283893;28;20307;-72
2022/09/24 09:53:53;;;;;;;19.08;17.10;;;;;;;15.04;100.00;101168.53;5290863;28;20123;-73
2022/09/24 09:56:40;;;;;;;18.73;16.67;;;;;;;15.14;100.00;101163.16;5283756;28;20027;-73
2022/09/24 09:59:11;;;;;;;19.20;17.30;;;;;;;15.06;100.00;101165.72;5288249;28;20084;-72
2022/09/24 10:01:45;;;;;;;19.37;17.37;;;;;;;15.17;100.00;101167.31;5289480;28;20031;-72
2022/09/24 10:04:38;;;;;;;18.75;16.88;;;;;;;15.33;100.00;101173.53;5291944;28;20056;-72
2022/09/24 10:07:14;;;;;;;19.38;16.40;;;;;;;15.22;100.00;101175.59;5287040;28;20039;-73
2022/09/24 10:09:45;;;;;;;18.65;16.70;;;;;;;15.27;100.00;101174.16;5289501;28;20035;-73
2022/09/24 10:12:21;;;;;;;18.30;16.17;;;;;;;15.32;100.00;101176.34;5277122;28;20035;-73
2022/09/24 10:15:20;;;;;;;18.08;16.17;;;;;;;15.56;100.00;101173.03;5271008;28;20141;-73
2022/09/24 10:17:53;;;;;;;17.67;15.85;;;;;;;15.29;100.00;101174.00;5289001;28;20504;-73
2022/09/24 10:20:33;;;;;;;17.77;15.93;;;;;;;15.40;100.00;101171.13;5291572;28;20107;-72
2022/09/24 10:23:19;;;;;;;17.63;15.73;;;;;;;15.48;100.00;101163.25;5290832;28;20545;-73
2022/09/24 10:25:58;;;;;;;17.52;15.77;;;;;;;15.39;100.00;101155.44;5293071;28;20020;-73
2022/09/24 10:31:25;;;;;;;20.20;18.17;;;;;;;15.41;100.00;101156.09;5288549;28;20024;-73
2022/09/24 10:33:58;;;;;;;18.92;16.73;;;;;;;15.42;100.00;101163.03;5290381;28;20040;-73
2022/09/24 10:36:33;;;;;;;19.10;17.10;;;;;;;15.50;100.00;101169.22;5293973;28;20032;-73
2022/09/24 10:39:13;;;;;;;19.23;17.23;;;;;;;15.71;100.00;101166.25;5272688;28;20020;-73
2022/09/24 10:41:49;;;;;;;20.13;17.10;;;;;;;15.71;100.00;101163.59;5296354;28;20032;-73
2022/09/24 10:44:21;;;;;;;18.20;16.30;;;;;;;15.77;100.00;101173.56;5277837;28;20353;-73
2022/09/24 10:47:24;;;;;;;18.33;16.42;;;;;;;16.09;100.00;101171.25;5293270;28;20059;-73
2022/09/24 10:50:20;;;;;;;19.30;17.25;;;;;;;16.13;100.00;101175.22;5294734;28;20060;-73
2022/09/24 10:53:06;;;;;;;18.73;16.92;;;;;;;16.23;100.00;101174.13;5294800;28;20284;-73
2022/09/24 10:55:56;;;;;;;17.92;16.05;;;;;;;16.23;100.00;101181.22;5292732;28;20052;-73
2022/09/24 10:58:40;;;;;;;18.70;16.83;;;;;;;16.09;100.00;101184.47;5275889;28;20020;-73
2022/09/24 11:01:25;;;;;;;19.45;17.45;;;;;;;16.21;100.00;101181.41;5292999;28;20027;-73
2022/09/24 11:04:19;;;;;;;18.00;16.20;;;;;;;16.38;100.00;101178.81;5294366;28;20028;-73
2022/09/24 11:07:25;;;;;;;18.30;16.50;;;;;;;16.45;100.00;101187.75;5290253;28;20477;-73
2022/09/24 11:10:21;;;;;;;19.10;17.10;;;;;;;16.44;100.00;101186.09;5288058;28;20497;-73
2022/09/24 11:13:34;;;;;;;18.13;16.27;;;;;;;16.63;100.00;101184.97;5293019;28;20020;-73
2022/09/24 11:16:25;;;;;;;17.20;15.40;;;;;;;16.64;100.00;101184.84;5289998;28;20039;-73
2022/09/24 11:19:09;;;;;;;16.08;14.48;;;;;;;16.42;100.00;101183.59;5273884;28;20038;-73
2022/09/24 11:22:22;;;;;;;16.08;14.48;;;;;;;16.67;100.00;101186.34;5293380;28;20036;-73
2022/09/24 11:25:09;;;;;;;16.10;14.50;;;;;;;16.68;100.00;101188.81;5271489;28;20055;-73
2022/09/24 11:27:50;;;;;;;15.27;13.68;;;;;;;16.76;100.00;101185.41;5276461;28;20039;-73
2022/09/24 11:30:30;;;;;;;15.32;13.73;;;;;;;16.69;100.00;101187.81;5284990;28;20066;-73
2022/09/24 11:33:17;;;;;;;16.33;13.65;;;;;;;16.61;100.00;101193.09;5291707;28;20023;-73
2022/09/24 11:36:15;;;;;;;14.23;12.80;;;;;;;16.75;100.00;101186.41;5291279;28;20107;-73
2022/09/24 11:39:06;;;;;;;13.98;12.60;;;;;;;16.65;100.00;101183.03;5292081;28;20042;-73
2022/09/24 11:41:49;;;;;;;16.98;12.90;;;;;;;16.58;100.00;101190.75;5292424;28;20116;-73
2022/09/24 11:44:42;;;;;;;15.20;12.93;;;;;;;16.80;100.00;101191.19;5295110;28;20067;-73
2022/09/24 11:47:35;;;;;;;12.77;10.90;;;;;;;16.65;100.00;101189.13;5274976;28;20509;-72
2022/09/24 11:50:18;;;;;;;13.43;11.23;;;;;;;16.76;100.00;101190.69;5294137;28;20039;-72
2022/09/24 11:53:07;;;;;;;;;;;;;;;17.29;100.00;101186.78;5290405;28;20392;-73
2022/09/24 11:55:50;;;;;;;12.35;10.13;;;;;;;16.85;100.00;101191.53;5275038;28;20323;-73
2022/09/24 11:58:33;;;;;;;12.83;11.43;;;;;;;16.84;100.00;101184.59;5283909;28;20074;-73